Time;durP1;ratioP1;P1;durP2;ratioP2;P2;SDS_P1;SDS_P2;PMS_P1;PMS_P2;Temp;Humidity;BMP_temperature;BMP_pressure;BME280_temperature;BME280_humidity;BME280_pressure;Samples;Min_cycle;Max_cycle;Signal;HPM_P1;HPM_P2
2021/05/12 00:01:43;;;;;;;1.48;0.70;;;12.70;79.70;;;;;;5037137;28;20033;-64
2021/05/12 00:04:14;;;;;;;0.60;0.60;;;12.70;79.50;;;;;;5036654;28;20033;-64
2021/05/12 00:06:42;;;;;;;0.60;0.60;;;12.70;79.60;;;;;;5043501;28;20515;-64
2021/05/12 00:09:12;;;;;;;0.60;0.60;;;12.70;79.60;;;;;;5034072;28;20044;-64
2021/05/12 00:11:42;;;;;;;1.17;0.70;;;12.70;79.80;;;;;;5032622;28;20032;-64
2021/05/12 00:14:11;;;;;;;0.50;0.50;;;12.60;79.60;;;;;;5037018;28;20405;-64
2021/05/12 00:16:37;;;;;;;0.80;0.52;;;12.60;79.70;;;;;;5036451;28;20048;-64
2021/05/12 00:19:07;;;;;;;0.70;0.70;;;12.60;79.70;;;;;;5036921;28;20400;-63
2021/05/12 00:24:11;;;;;;;0.68;0.68;;;12.60;79.90;;;;;;5034559;28;20033;-64
2021/05/12 00:26:43;;;;;;;0.60;0.50;;;12.60;80.00;;;;;;5032089;28;20052;-64
2021/05/12 00:29:17;;;;;;;0.70;0.70;;;12.60;80.10;;;;;;5035712;28;20527;-64
2021/05/12 00:31:50;;;;;;;0.70;0.70;;;12.60;80.10;;;;;;5033826;28;20033;-64
2021/05/12 00:34:18;;;;;;;0.73;0.70;;;12.60;80.30;;;;;;5037329;28;20033;-64
2021/05/12 00:36:43;;;;;;;0.90;0.90;;;12.60;80.00;;;;;;5034226;28;20659;-64
2021/05/12 00:39:11;;;;;;;0.82;0.82;;;12.60;80.10;;;;;;5035462;28;20048;-65
2021/05/12 00:41:41;;;;;;;0.75;0.75;;;12.60;80.10;;;;;;5038064;28;20042;-64
2021/05/12 00:44:20;;;;;;;1.23;0.88;;;12.60;80.00;;;;;;5037063;28;20563;-64
2021/05/12 00:46:49;;;;;;;0.70;0.70;;;12.60;80.50;;;;;;5030788;28;20876;-64
2021/05/12 00:49:22;;;;;;;1.08;0.80;;;12.60;80.00;;;;;;5037758;28;20052;-64
2021/05/12 00:51:53;;;;;;;0.98;0.70;;;12.60;80.00;;;;;;5037522;28;20040;-64
2021/05/12 00:54:23;;;;;;;0.70;0.70;;;12.60;80.10;;;;;;5028944;28;20033;-64
2021/05/12 00:56:53;;;;;;;0.70;0.70;;;12.60;80.10;;;;;;5035604;28;20041;-64
2021/05/12 00:59:21;;;;;;;0.60;0.60;;;12.60;80.00;;;;;;5035655;28;20033;-64
2021/05/12 01:01:48;;;;;;;0.80;0.80;;;12.60;80.00;;;;;;5030599;28;20041;-64
2021/05/12 01:04:16;;;;;;;0.73;0.73;;;12.60;79.90;;;;;;5034585;28;21558;-64
2021/05/12 01:06:46;;;;;;;0.90;0.70;;;12.60;80.20;;;;;;5037809;28;20448;-64
2021/05/12 01:09:15;;;;;;;0.60;0.60;;;12.60;80.30;;;;;;5036299;28;20041;-64
2021/05/12 01:11:43;;;;;;;0.70;0.70;;;12.60;80.20;;;;;;5030595;28;20075;-64
2021/05/12 01:14:11;;;;;;;0.75;0.75;;;12.60;81.00;;;;;;5033455;28;20029;-64
2021/05/12 01:16:42;;;;;;;0.60;0.60;;;12.60;80.20;;;;;;5030178;28;20424;-64
2021/05/12 01:19:13;;;;;;;0.60;0.60;;;12.60;80.30;;;;;;5037590;28;20512;-64
2021/05/12 01:21:41;;;;;;;0.60;0.60;;;12.60;80.30;;;;;;5034913;28;20037;-64
2021/05/12 01:24:11;;;;;;;0.70;0.70;;;12.60;80.10;;;;;;5031434;28;20033;-64
2021/05/12 01:26:39;;;;;;;0.80;0.60;;;12.60;80.30;;;;;;5034418;28;20573;-64
2021/05/12 01:29:08;;;;;;;0.60;0.60;;;12.60;80.30;;;;;;5035734;28;20120;-64
2021/05/12 01:31:41;;;;;;;0.50;0.50;;;12.60;80.40;;;;;;5032278;28;20037;-64
2021/05/12 01:34:12;;;;;;;0.60;0.55;;;12.60;80.30;;;;;;5035614;28;20029;-64
2021/05/12 01:36:46;;;;;;;0.60;0.60;;;12.60;80.50;;;;;;5038749;28;20061;-64
2021/05/12 01:39:17;;;;;;;0.60;0.60;;;12.60;80.50;;;;;;5036837;28;20024;-64
2021/05/12 01:41:48;;;;;;;0.63;0.63;;;12.60;80.30;;;;;;5037200;28;20021;-65
2021/05/12 01:44:16;;;;;;;0.73;0.50;;;12.60;80.50;;;;;;5031816;28;20030;-64
2021/05/12 01:46:46;;;;;;;0.70;0.52;;;12.60;80.30;;;;;;5036067;28;20040;-64
2021/05/12 01:49:15;;;;;;;0.50;0.50;;;12.60;80.40;;;;;;5038421;28;20092;-64
2021/05/12 01:51:46;;;;;;;1.35;0.63;;;12.60;80.30;;;;;;5034528;28;20041;-64
2021/05/12 01:54:14;;;;;;;0.55;0.40;;;12.50;80.50;;;;;;5034985;28;20860;-64
2021/05/12 01:56:43;;;;;;;0.50;0.47;;;12.50;80.30;;;;;;5034842;28;20433;-64
2021/05/12 01:59:11;;;;;;;0.50;0.50;;;12.50;80.40;;;;;;5037089;28;20030;-65
2021/05/12 02:01:40;;;;;;;0.47;0.47;;;12.50;80.60;;;;;;5037586;28;20549;-64
2021/05/12 02:04:11;;;;;;;0.38;0.35;;;12.50;80.70;;;;;;5033238;28;20120;-64
2021/05/12 02:06:39;;;;;;;0.40;0.40;;;12.50;80.60;;;;;;5037630;28;20028;-65
2021/05/12 02:09:14;;;;;;;0.40;0.40;;;12.50;80.80;;;;;;5036339;28;20044;-64
2021/05/12 02:11:43;;;;;;;0.40;0.40;;;12.50;81.10;;;;;;5027708;28;20045;-64
2021/05/12 02:14:08;;;;;;;0.30;0.30;;;12.50;80.80;;;;;;5033033;28;20033;-64
2021/05/12 02:16:39;;;;;;;0.50;0.35;;;12.50;80.80;;;;;;5033731;28;20036;-64
2021/05/12 02:19:07;;;;;;;0.40;0.30;;;12.50;80.90;;;;;;5031373;28;20491;-64
2021/05/12 02:21:33;;;;;;;0.40;0.40;;;12.50;80.80;;;;;;5032891;28;20034;-65
2021/05/12 02:24:03;;;;;;;0.20;0.20;;;12.50;80.90;;;;;;5039286;28;20030;-64
2021/05/12 02:26:34;;;;;;;1.45;0.28;;;12.50;80.80;;;;;;5034200;28;20116;-64
2021/05/12 02:29:01;;;;;;;0.30;0.30;;;12.50;80.90;;;;;;5035902;28;20037;-66
2021/05/12 02:31:27;;;;;;;0.40;0.30;;;12.50;81.00;;;;;;5035953;28;20029;-64
2021/05/12 02:33:57;;;;;;;0.38;0.30;;;12.50;81.10;;;;;;5034681;28;20043;-64
2021/05/12 02:36:25;;;;;;;0.43;0.15;;;12.50;81.10;;;;;;5030524;28;20038;-64
2021/05/12 02:38:53;;;;;;;0.52;0.30;;;12.50;81.20;;;;;;5031394;28;20116;-64
2021/05/12 02:41:19;;;;;;;0.30;0.20;;;12.50;81.30;;;;;;5035468;28;20033;-65
2021/05/12 02:43:47;;;;;;;0.47;0.28;;;12.40;81.20;;;;;;5032754;28;20044;-65
2021/05/12 02:46:17;;;;;;;0.52;0.40;;;12.50;81.50;;;;;;5030977;28;20033;-64
2021/05/12 02:48:50;;;;;;;1.73;0.40;;;12.40;81.40;;;;;;5036324;28;20040;-65
2021/05/12 02:51:18;;;;;;;0.35;0.20;;;12.40;81.30;;;;;;5036711;28;20049;-64
2021/05/12 02:53:45;;;;;;;0.88;0.30;;;12.40;81.20;;;;;;5035645;28;20075;-65
2021/05/12 02:56:16;;;;;;;1.20;0.30;;;12.40;81.30;;;;;;5032277;28;20076;-64
2021/05/12 02:58:48;;;;;;;0.20;0.20;;;12.40;81.30;;;;;;5033110;28;20563;-64
2021/05/12 03:01:21;;;;;;;0.30;0.30;;;12.40;81.50;;;;;;5033195;28;20032;-64
2021/05/12 03:03:51;;;;;;;0.20;0.20;;;12.40;81.50;;;;;;5033597;28;20033;-64
2021/05/12 03:06:24;;;;;;;0.30;0.20;;;12.40;81.50;;;;;;5030144;28;20034;-64
2021/05/12 03:08:49;;;;;;;0.40;0.28;;;12.40;81.50;;;;;;5032731;28;20029;-64
2021/05/12 03:11:18;;;;;;;0.30;0.30;;;12.40;81.30;;;;;;5034675;28;20045;-65
2021/05/12 03:13:46;;;;;;;0.55;0.40;;;12.40;81.30;;;;;;5034082;28;20041;-65
2021/05/12 03:16:16;;;;;;;1.05;0.40;;;12.40;81.30;;;;;;5030778;28;20035;-64
2021/05/12 03:18:44;;;;;;;0.40;0.40;;;12.40;81.30;;;;;;5030633;28;20029;-65
2021/05/12 03:21:15;;;;;;;0.30;0.30;;;12.40;81.30;;;;;;5032150;28;20045;-65
2021/05/12 03:23:40;;;;;;;0.60;0.60;;;12.40;81.30;;;;;;5033214;28;20083;-64
2021/05/12 03:26:11;;;;;;;0.82;0.55;;;12.40;81.30;;;;;;5033655;28;20049;-64
2021/05/12 03:28:43;;;;;;;0.50;0.45;;;12.40;81.20;;;;;;5032709;28;20041;-65
2021/05/12 03:31:16;;;;;;;0.47;0.47;;;12.40;82.20;;;;;;5032434;28;20561;-65
2021/05/12 03:33:45;;;;;;;0.50;0.50;;;12.40;81.30;;;;;;5033363;28;20033;-64
2021/05/12 03:36:18;;;;;;;0.52;0.38;;;12.40;81.20;;;;;;5032760;28;20030;-65
2021/05/12 03:38:48;;;;;;;0.77;0.30;;;12.50;81.30;;;;;;5030645;28;20052;-65
2021/05/12 03:41:18;;;;;;;0.30;0.30;;;12.50;81.10;;;;;;5031418;28;20069;-65
2021/05/12 03:43:48;;;;;;;0.63;0.40;;;12.50;81.90;;;;;;5029514;28;20025;-65
2021/05/12 03:46:16;;;;;;;1.13;0.40;;;12.50;80.90;;;;;;5028385;28;20033;-65
2021/05/12 03:48:47;;;;;;;0.30;0.30;;;12.50;80.90;;;;;;5031176;28;20044;-65
2021/05/12 03:51:15;;;;;;;0.45;0.40;;;12.50;81.00;;;;;;5029362;28;20524;-65
2021/05/12 03:53:45;;;;;;;0.65;0.40;;;12.50;80.80;;;;;;5030116;28;20033;-65
2021/05/12 03:56:16;;;;;;;0.55;0.30;;;12.50;80.80;;;;;;5031947;28;20419;-65
2021/05/12 03:58:41;;;;;;;2.20;0.43;;;12.50;80.70;;;;;;5030604;28;20078;-65
2021/05/12 04:01:09;;;;;;;0.30;0.30;;;12.50;80.60;;;;;;5027382;28;20140;-65
2021/05/12 04:03:37;;;;;;;0.85;0.25;;;12.50;80.50;;;;;;5027490;28;20038;-65
2021/05/12 04:06:07;;;;;;;0.65;0.40;;;12.50;80.60;;;;;;5031271;28;20163;-65
2021/05/12 04:08:37;;;;;;;0.32;0.32;;;12.50;80.80;;;;;;5029278;28;20438;-65
2021/05/12 04:11:03;;;;;;;0.38;0.38;;;12.50;80.50;;;;;;5029992;28;20497;-64
2021/05/12 04:13:31;;;;;;;0.85;0.35;;;12.50;80.40;;;;;;5033765;28;20048;-65
2021/05/12 04:15:57;;;;;;;0.40;0.40;;;12.50;80.50;;;;;;5035145;28;20030;-65
2021/05/12 04:18:25;;;;;;;0.40;0.40;;;12.50;80.50;;;;;;5031338;28;20424;-65
2021/05/12 04:20:50;;;;;;;1.00;0.50;;;12.50;80.40;;;;;;5041878;28;20040;-65
2021/05/12 04:23:18;;;;;;;0.40;0.40;;;12.50;80.30;;;;;;5036586;28;20696;-65
2021/05/12 04:25:46;;;;;;;0.40;0.40;;;12.50;80.10;;;;;;5038736;28;20037;-65
2021/05/12 04:28:19;;;;;;;0.70;0.50;;;12.60;80.20;;;;;;5035779;28;20095;-66
2021/05/12 04:30:47;;;;;;;0.47;0.47;;;12.50;80.30;;;;;;5030820;28;20033;-65
2021/05/12 04:33:15;;;;;;;0.52;0.50;;;12.60;80.10;;;;;;5025128;28;20051;-65
2021/05/12 04:35:45;;;;;;;0.50;0.50;;;12.60;80.10;;;;;;5032415;28;20037;-65
2021/05/12 04:38:18;;;;;;;1.35;0.40;;;12.60;80.00;;;;;;5038967;28;20520;-65
2021/05/12 04:40:46;;;;;;;0.65;0.63;;;12.60;79.80;;;;;;5037357;28;20037;-65
2021/05/12 04:43:16;;;;;;;25.20;14.93;;;12.60;79.70;;;;;;5040400;28;20033;-65
2021/05/12 04:45:44;;;;;;;31.85;17.38;;;12.60;79.90;;;;;;5040604;28;20033;-65
2021/05/12 04:48:12;;;;;;;6.25;4.50;;;12.60;80.00;;;;;;5042110;28;20056;-65
2021/05/12 04:50:40;;;;;;;1.30;1.20;;;12.60;79.80;;;;;;5041863;28;20030;-65
2021/05/12 04:53:06;;;;;;;1.00;0.90;;;12.60;79.60;;;;;;5040803;28;20037;-65
2021/05/12 04:55:36;;;;;;;0.80;0.80;;;12.60;79.60;;;;;;5042550;28;20029;-65
2021/05/12 04:58:02;;;;;;;0.85;0.60;;;12.70;79.60;;;;;;5040275;28;20037;-66
2021/05/12 05:00:28;;;;;;;1.63;0.80;;;12.70;79.40;;;;;;5042463;28;20030;-65
2021/05/12 05:02:55;;;;;;;1.40;1.17;;;12.70;79.40;;;;;;5041691;28;20033;-65
2021/05/12 05:05:26;;;;;;;1.40;1.30;;;12.70;79.40;;;;;;5039154;28;20121;-65
2021/05/12 05:07:54;;;;;;;1.92;1.70;;;12.70;79.60;;;;;;5026219;28;20497;-65
2021/05/12 05:10:24;;;;;;;3.85;1.60;;;12.60;80.40;;;;;;5039360;28;20116;-65
2021/05/12 05:12:52;;;;;;;4.35;2.38;;;12.70;79.60;;;;;;5039709;28;20068;-65
2021/05/12 05:15:20;;;;;;;2.50;2.17;;;12.70;79.60;;;;;;5041017;28;20029;-64
2021/05/12 05:17:52;;;;;;;1.40;1.30;;;12.70;79.40;;;;;;5042127;28;20037;-65
2021/05/12 05:20:23;;;;;;;1.80;1.52;;;12.60;79.30;;;;;;5042948;28;20064;-65
2021/05/12 05:22:56;;;;;;;2.13;1.20;;;12.70;79.30;;;;;;5043259;28;20433;-65
2021/05/12 05:25:24;;;;;;;1.25;1.15;;;12.60;79.20;;;;;;5038807;28;20475;-65
2021/05/12 05:27:52;;;;;;;1.77;1.10;;;12.70;80.00;;;;;;5042522;28;20455;-65
2021/05/12 05:30:20;;;;;;;1.30;1.10;;;12.70;79.10;;;;;;5040720;28;20064;-65
2021/05/12 05:32:48;;;;;;;1.60;1.10;;;12.70;80.00;;;;;;5040184;28;20038;-65
2021/05/12 05:35:16;;;;;;;6.55;3.35;;;12.70;79.10;;;;;;5041430;28;20048;-65
2021/05/12 05:37:44;;;;;;;8.80;4.55;;;12.70;79.10;;;;;;5042899;28;20033;-65
2021/05/12 05:40:11;;;;;;;3.60;2.67;;;12.70;79.10;;;;;;5048191;28;20060;-66
2021/05/12 05:42:41;;;;;;;2.10;1.70;;;12.70;79.10;;;;;;5040598;28;20049;-65
2021/05/12 05:45:15;;;;;;;3.38;2.80;;;12.70;79.10;;;;;;5040101;28;20053;-65
2021/05/12 05:47:47;;;;;;;2.97;2.42;;;12.70;79.20;;;;;;5041771;28;20524;-65
2021/05/12 05:50:17;;;;;;;3.10;1.52;;;12.70;79.20;;;;;;5038132;28;20473;-65
2021/05/12 05:52:47;;;;;;;2.40;2.20;;;12.70;79.20;;;;;;5041317;28;20060;-64
2021/05/12 05:55:16;;;;;;;2.72;2.53;;;12.70;79.10;;;;;;5040072;28;20030;-65
2021/05/12 05:57:44;;;;;;;2.65;2.15;;;12.80;79.10;;;;;;5036396;28;20044;-65
2021/05/12 06:00:10;;;;;;;2.72;1.50;;;12.70;78.90;;;;;;5038317;28;20045;-65
2021/05/12 06:02:43;;;;;;;1.63;1.40;;;12.80;79.00;;;;;;5047328;28;20037;-65
2021/05/12 06:05:16;;;;;;;1.45;1.35;;;12.80;79.10;;;;;;5038958;28;20032;-65
2021/05/12 06:07:41;;;;;;;2.35;1.50;;;12.80;79.00;;;;;;5037404;28;20033;-66
2021/05/12 06:10:12;;;;;;;1.77;1.27;;;12.70;78.90;;;;;;5036674;28;20041;-65
2021/05/12 06:12:40;;;;;;;1.77;1.38;;;12.80;79.00;;;;;;5035412;28;20045;-65
2021/05/12 06:15:06;;;;;;;2.25;1.50;;;12.70;79.10;;;;;;5040615;28;20040;-65
2021/05/12 06:17:36;;;;;;;4.30;3.78;;;12.70;78.90;;;;;;5041318;28;20040;-65
2021/05/12 06:20:08;;;;;;;1.40;1.30;;;12.70;78.90;;;;;;5040709;28;20033;-65
2021/05/12 06:22:38;;;;;;;1.52;1.38;;;12.70;78.90;;;;;;5042602;28;20038;-65
2021/05/12 06:25:12;;;;;;;4.32;3.15;;;12.60;79.00;;;;;;5042856;28;20131;-64
2021/05/12 06:27:44;;;;;;;5.07;3.60;;;12.60;79.10;;;;;;5049673;28;20101;-64
2021/05/12 06:30:15;;;;;;;2.40;1.88;;;12.70;79.10;;;;;;5041173;28;20037;-65
2021/05/12 06:32:43;;;;;;;2.15;1.00;;;12.60;79.10;;;;;;5040073;28;20080;-65
2021/05/12 06:35:11;;;;;;;1.52;1.23;;;12.60;79.20;;;;;;5042359;28;20405;-64
2021/05/12 06:37:41;;;;;;;4.20;1.17;;;12.60;79.20;;;;;;5041340;28;20041;-65
2021/05/12 06:40:15;;;;;;;0.63;0.60;;;12.50;79.40;;;;;;5040740;28;20061;-65
2021/05/12 06:42:46;;;;;;;0.68;0.47;;;12.50;79.20;;;;;;5038519;28;20064;-65
2021/05/12 06:45:16;;;;;;;0.50;0.40;;;12.50;79.10;;;;;;5041296;28;20527;-65
2021/05/12 06:47:45;;;;;;;0.82;0.50;;;12.50;79.30;;;;;;5040883;28;20037;-65
2021/05/12 06:50:15;;;;;;;0.63;0.50;;;12.50;79.40;;;;;;5040462;28;20069;-65
2021/05/12 06:52:46;;;;;;;0.35;0.30;;;12.50;79.50;;;;;;5041837;28;20421;-65
2021/05/12 06:55:14;;;;;;;0.47;0.40;;;12.50;80.50;;;;;;5041221;28;20061;-65
2021/05/12 06:57:41;;;;;;;0.38;0.25;;;12.50;79.50;;;;;;5039842;28;20037;-65
2021/05/12 07:00:12;;;;;;;0.35;0.30;;;12.50;79.30;;;;;;5041092;28;20030;-65
2021/05/12 07:02:43;;;;;;;0.88;0.30;;;12.50;79.20;;;;;;5028635;28;20140;-65
2021/05/12 07:05:19;;;;;;;0.65;0.22;;;12.50;78.60;;;;;;5038439;28;20036;-64
2021/05/12 07:07:45;;;;;;;0.57;0.45;;;12.40;78.20;;;;;;5037636;28;20034;-65
2021/05/12 07:10:12;;;;;;;0.68;0.40;;;12.40;77.90;;;;;;5038489;28;20105;-64
2021/05/12 07:12:40;;;;;;;0.28;0.28;;;12.40;77.50;;;;;;5034992;28;20033;-64
2021/05/12 07:15:12;;;;;;;0.50;0.30;;;12.40;77.50;;;;;;5035974;28;20041;-64
2021/05/12 07:17:42;;;;;;;0.80;0.45;;;12.30;77.40;;;;;;5034993;28;20041;-65
2021/05/12 07:20:16;;;;;;;0.70;0.40;;;12.30;77.60;;;;;;5036914;28;20037;-64
2021/05/12 07:22:44;;;;;;;0.80;0.30;;;12.30;78.20;;;;;;5037150;28;20111;-65
2021/05/12 07:25:10;;;;;;;0.30;0.30;;;12.30;78.50;;;;;;5036469;28;20033;-65
2021/05/12 07:27:38;;;;;;;4.35;0.50;;;12.30;78.40;;;;;;5040365;28;20038;-65
2021/05/12 07:30:06;;;;;;;0.43;0.30;;;12.30;78.20;;;;;;5038061;28;20087;-65
2021/05/12 07:32:34;;;;;;;0.40;0.40;;;12.30;78.40;;;;;;5038772;28;20060;-65
2021/05/12 07:35:07;;;;;;;0.60;0.40;;;12.30;78.30;;;;;;5038411;28;20497;-65
2021/05/12 07:37:32;;;;;;;0.63;0.30;;;12.30;78.20;;;;;;5036884;28;20175;-65
2021/05/12 07:40:00;;;;;;;2.15;0.30;;;12.40;78.30;;;;;;5039478;28;20117;-65
2021/05/12 07:42:28;;;;;;;1.17;0.50;;;12.40;78.20;;;;;;5035875;28;20032;-65
2021/05/12 07:44:56;;;;;;;0.32;0.32;;;12.40;77.90;;;;;;5037995;28;20528;-65
2021/05/12 07:47:24;;;;;;;1.33;0.70;;;12.50;77.90;;;;;;5036935;28;20060;-65
2021/05/12 07:49:52;;;;;;;1.35;0.60;;;12.50;77.70;;;;;;5037263;28;20064;-65
2021/05/12 07:52:20;;;;;;;2.05;0.60;;;12.50;77.60;;;;;;5038366;28;20037;-65
2021/05/12 07:54:48;;;;;;;1.30;1.00;;;12.50;77.60;;;;;;5036906;28;20094;-65
2021/05/12 07:57:18;;;;;;;0.98;0.50;;;12.50;77.50;;;;;;5036929;28;20048;-64
2021/05/12 07:59:46;;;;;;;1.42;0.68;;;12.60;77.10;;;;;;5046581;28;20072;-65
2021/05/12 08:02:15;;;;;;;1.23;0.77;;;12.60;76.70;;;;;;5035682;28;20112;-65
2021/05/12 08:04:43;;;;;;;1.15;0.82;;;12.50;76.60;;;;;;5038133;28;20037;-64
2021/05/12 08:07:11;;;;;;;1.30;0.73;;;12.60;76.60;;;;;;5039514;28;20115;-64
2021/05/12 08:09:39;;;;;;;2.97;1.20;;;12.50;76.50;;;;;;5037144;28;20042;-64
2021/05/12 08:12:07;;;;;;;2.08;1.20;;;12.50;76.20;;;;;;5041355;28;20465;-65
2021/05/12 08:14:37;;;;;;;2.13;1.17;;;12.50;76.10;;;;;;5039112;28;20041;-64
2021/05/12 08:17:03;;;;;;;1.52;0.85;;;12.50;76.10;;;;;;5039953;28;20035;-65
2021/05/12 08:19:33;;;;;;;2.85;1.70;;;12.50;76.10;;;;;;5041350;28;20032;-64
2021/05/12 08:22:09;;;;;;;2.10;1.30;;;12.40;76.10;;;;;;5043457;28;20042;-65
2021/05/12 08:24:35;;;;;;;4.75;1.48;;;12.40;76.50;;;;;;5042084;28;20576;-65
2021/05/12 08:27:04;;;;;;;1.65;1.30;;;12.40;76.70;;;;;;5041598;28;20068;-64
2021/05/12 08:29:36;;;;;;;2.13;1.38;;;12.30;76.90;;;;;;5048378;28;20052;-64
2021/05/12 08:32:06;;;;;;;3.75;1.92;;;12.30;77.00;;;;;;5042189;28;20041;-64
2021/05/12 08:34:34;;;;;;;2.13;1.50;;;12.30;77.20;;;;;;5038980;28;20040;-65
2021/05/12 08:37:04;;;;;;;4.43;1.80;;;12.30;77.20;;;;;;5044002;28;20041;-65
2021/05/12 08:39:34;;;;;;;2.33;1.80;;;12.20;77.30;;;;;;5037751;28;20059;-64
2021/05/12 08:42:06;;;;;;;2.38;2.00;;;12.20;77.40;;;;;;5037129;28;20045;-64
2021/05/12 08:44:40;;;;;;;4.95;2.17;;;12.30;77.90;;;;;;5036438;28;20033;-64
2021/05/12 08:47:09;;;;;;;3.85;2.08;;;12.20;78.10;;;;;;5038764;28;20041;-64
2021/05/12 08:49:39;;;;;;;2.47;1.85;;;12.30;78.10;;;;;;5048725;28;20033;-64
2021/05/12 08:52:08;;;;;;;2.60;1.50;;;12.30;78.60;;;;;;5042083;28;20045;-65
2021/05/12 08:54:37;;;;;;;4.25;2.10;;;12.30;78.30;;;;;;5040790;28;20071;-64
2021/05/12 08:57:07;;;;;;;2.80;2.10;;;12.30;78.20;;;;;;5039061;28;20045;-64
2021/05/12 08:59:38;;;;;;;2.67;2.10;;;12.30;78.40;;;;;;5039237;28;20472;-64
2021/05/12 09:02:06;;;;;;;3.35;2.45;;;12.30;78.60;;;;;;5034837;28;20124;-64
2021/05/12 09:04:36;;;;;;;3.00;2.03;;;12.40;78.60;;;;;;5044798;28;20652;-64
2021/05/12 09:07:08;;;;;;;4.80;1.90;;;12.40;78.70;;;;;;5041067;28;20047;-64
2021/05/12 09:09:36;;;;;;;3.42;1.90;;;12.40;78.60;;;;;;5039671;28;20033;-64
2021/05/12 09:12:06;;;;;;;3.47;2.03;;;12.40;78.40;;;;;;5035726;28;20045;-64
2021/05/12 09:14:39;;;;;;;5.63;2.78;;;12.40;78.40;;;;;;5039139;28;20029;-64
2021/05/12 09:17:07;;;;;;;5.22;2.65;;;12.40;78.80;;;;;;5039465;28;20119;-64
2021/05/12 09:19:37;;;;;;;3.75;2.00;;;12.50;78.70;;;;;;5040663;28;20112;-64
2021/05/12 09:22:06;;;;;;;36.00;17.98;;;12.50;78.50;;;;;;5039716;28;20073;-64
2021/05/12 09:24:38;;;;;;;6.38;3.08;;;12.50;78.50;;;;;;5038095;28;20029;-64
2021/05/12 09:27:12;;;;;;;3.92;3.22;;;12.50;78.40;;;;;;5045032;28;20499;-64
2021/05/12 09:29:45;;;;;;;4.15;1.80;;;12.50;78.40;;;;;;5040988;28;20696;-64
2021/05/12 09:32:20;;;;;;;2.28;2.00;;;12.50;78.50;;;;;;5041035;28;20278;-64
2021/05/12 09:34:55;;;;;;;4.68;1.70;;;12.50;78.40;;;;;;5040386;28;20509;-64
2021/05/12 09:37:40;;;;;;;2.28;1.80;;;12.60;78.30;;;;;;5041353;28;20045;-64
2021/05/12 09:40:14;;;;;;;3.53;1.90;;;12.50;78.20;;;;;;5039798;28;20644;-64
2021/05/12 09:42:43;;;;;;;5.25;2.10;;;12.60;78.50;;;;;;5039775;28;20037;-64
2021/05/12 09:45:14;;;;;;;2.63;1.55;;;12.60;78.40;;;;;;5039711;28;20151;-64
2021/05/12 09:47:46;;;;;;;4.50;1.90;;;12.50;78.00;;;;;;5038838;28;20029;-64
2021/05/12 09:50:23;;;;;;;2.42;1.70;;;12.50;78.10;;;;;;5039906;28;20033;-64
2021/05/12 09:53:00;;;;;;;2.70;1.60;;;12.60;79.40;;;;;;5040388;28;20033;-64
2021/05/12 09:55:44;;;;;;;3.25;1.77;;;12.60;78.70;;;;;;5041275;28;20045;-64
2021/05/12 09:58:21;;;;;;;2.70;1.77;;;12.60;78.30;;;;;;5038835;28;20291;-64
2021/05/12 10:00:55;;;;;;;5.45;2.63;;;12.60;78.20;;;;;;5036936;28;20500;-64
2021/05/12 10:03:27;;;;;;;3.60;1.90;;;12.50;78.30;;;;;;5036748;28;20503;-64
2021/05/12 10:06:00;;;;;;;2.35;1.73;;;12.60;78.60;;;;;;5047502;28;20060;-64
2021/05/12 10:08:27;;;;;;;2.35;1.63;;;12.60;78.80;;;;;;5040062;28;20041;-64
2021/05/12 10:10:56;;;;;;;3.25;1.55;;;12.60;78.40;;;;;;5038241;28;20491;-64
2021/05/12 10:13:24;;;;;;;4.63;1.80;;;12.60;78.20;;;;;;5040243;28;20124;-64
2021/05/12 10:15:52;;;;;;;3.45;1.75;;;12.60;78.20;;;;;;5039652;28;20112;-64
2021/05/12 10:18:20;;;;;;;3.47;1.90;;;12.60;78.40;;;;;;5037857;28;20504;-64
2021/05/12 10:20:49;;;;;;;2.70;1.65;;;12.70;78.40;;;;;;5038952;28;20376;-64
2021/05/12 10:23:17;;;;;;;1.77;1.67;;;12.70;78.60;;;;;;5039511;28;20037;-64
2021/05/12 10:25:50;;;;;;;3.22;1.80;;;12.70;78.40;;;;;;5040136;28;20345;-64
2021/05/12 10:28:18;;;;;;;2.88;1.90;;;12.70;78.20;;;;;;5038763;28;20500;-64
2021/05/12 10:30:54;;;;;;;2.35;1.50;;;12.70;78.30;;;;;;5040157;28;20037;-64
2021/05/12 10:33:52;;;;;;;5.20;2.70;;;12.70;78.60;;;;;;5034156;28;20037;-64
2021/05/12 10:36:20;;;;;;;3.03;2.33;;;12.70;79.10;;;;;;5037332;28;20041;-64
2021/05/12 10:38:49;;;;;;;3.97;2.15;;;12.80;78.70;;;;;;5035467;28;20029;-64
2021/05/12 10:41:37;;;;;;;3.58;2.33;;;12.80;78.60;;;;;;5040267;28;20432;-64
2021/05/12 10:44:18;;;;;;;3.75;3.30;;;12.90;78.70;;;;;;5039865;28;20038;-64
2021/05/12 10:47:06;;;;;;;4.85;3.13;;;12.90;78.40;;;;;;5039510;28;20063;-64
2021/05/12 10:49:34;;;;;;;3.72;1.80;;;13.00;78.60;;;;;;5040225;28;20408;-64
2021/05/12 10:52:08;;;;;;;3.05;2.17;;;13.00;78.30;;;;;;5040720;28;20127;-65
2021/05/12 10:54:44;;;;;;;2.97;1.90;;;13.00;78.50;;;;;;5039905;28;20044;-64
2021/05/12 10:57:38;;;;;;;2.90;2.33;;;13.10;78.40;;;;;;5042606;28;20096;-64
2021/05/12 11:00:07;;;;;;;10.30;3.20;;;13.10;78.30;;;;;;5039743;28;20045;-64
2021/05/12 11:03:00;;;;;;;8.48;2.65;;;13.10;77.90;;;;;;5037470;28;20033;-64
2021/05/12 11:05:43;;;;;;;2.10;1.90;;;13.20;78.00;;;;;;5041123;28;20021;-64
2021/05/12 11:08:21;;;;;;;2.92;2.00;;;13.20;77.60;;;;;;5042677;28;20037;-64
2021/05/12 11:11:02;;;;;;;2.33;1.63;;;13.30;77.70;;;;;;5039478;28;20037;-64
2021/05/12 11:13:34;;;;;;;1.77;1.50;;;13.30;77.70;;;;;;5041210;28;20083;-64
2021/05/12 11:16:01;;;;;;;1.77;1.45;;;13.30;77.50;;;;;;5041506;28;20029;-64
2021/05/12 11:18:40;;;;;;;2.85;1.70;;;13.30;77.50;;;;;;5041139;28;20045;-65
2021/05/12 11:21:33;;;;;;;2.83;1.42;;;13.40;78.80;;;;;;5039533;28;20029;-64
2021/05/12 11:24:06;;;;;;;1.92;1.38;;;13.40;76.90;;;;;;5049988;28;20033;-64
2021/05/12 11:32:05;;;;;;;3.05;1.65;;;13.40;76.10;;;;;;5041354;28;20033;-65
2021/05/12 11:34:31;;;;;;;2.42;1.60;;;13.30;76.00;;;;;;5042229;28;20033;-65
2021/05/12 11:37:22;;;;;;;1.98;1.20;;;13.30;76.40;;;;;;5040921;28;20665;-65
2021/05/12 11:39:48;;;;;;;1.48;1.20;;;13.30;76.80;;;;;;5039519;28;20036;-64
2021/05/12 11:42:19;;;;;;;1.30;1.20;;;13.30;76.80;;;;;;5047035;28;20038;-65
2021/05/12 11:44:50;;;;;;;2.10;1.30;;;13.30;76.80;;;;;;5041378;28;20041;-64
2021/05/12 11:47:43;;;;;;;1.60;1.20;;;13.30;76.80;;;;;;5039013;28;20256;-65
2021/05/12 11:50:27;;;;;;;2.60;1.17;;;13.30;77.00;;;;;;5038699;28;20045;-64
2021/05/12 11:52:56;;;;;;;2.20;1.38;;;13.30;76.60;;;;;;5037931;28;20589;-64
2021/05/12 11:55:27;;;;;;;1.83;1.20;;;13.30;76.70;;;;;;5037288;28;20195;-64
2021/05/12 11:57:53;;;;;;;1.65;1.40;;;13.30;76.70;;;;;;5035871;28;22568;-64
2021/05/12 12:00:27;;;;;;;3.17;1.38;;;13.30;76.80;;;;;;5036780;28;20036;-65
2021/05/12 12:03:07;;;;;;;1.90;1.20;;;13.30;77.00;;;;;;5037990;28;20038;-65
2021/05/12 12:05:49;;;;;;;2.25;1.30;;;13.40;77.20;;;;;;5041274;28;20029;-65
2021/05/12 12:08:19;;;;;;;1.73;1.38;;;13.40;77.20;;;;;;5042800;28;20619;-64
2021/05/12 12:10:47;;;;;;;2.13;1.60;;;13.40;77.20;;;;;;5039359;28;20161;-65
2021/05/12 12:13:15;;;;;;;2.00;1.40;;;13.40;77.30;;;;;;5042015;28;20497;-64
2021/05/12 12:15:52;;;;;;;1.50;1.20;;;13.40;77.30;;;;;;5044230;28;20507;-64
2021/05/12 12:18:27;;;;;;;2.30;1.67;;;13.40;77.20;;;;;;5048562;28;20041;-64
2021/05/12 12:20:55;;;;;;;1.67;1.40;;;13.40;77.60;;;;;;5042592;28;20053;-65
2021/05/12 12:23:35;;;;;;;1.95;1.33;;;13.50;77.20;;;;;;5041560;28;20029;-65
2021/05/12 12:26:18;;;;;;;2.03;1.33;;;13.50;77.20;;;;;;5042414;28;20061;-65
2021/05/12 12:28:58;;;;;;;2.42;1.20;;;13.50;76.80;;;;;;5041324;28;20033;-65
2021/05/12 12:31:32;;;;;;;2.60;1.27;;;13.60;76.60;;;;;;5040118;28;20045;-64
2021/05/12 12:34:13;;;;;;;1.25;1.15;;;13.60;76.40;;;;;;5037466;28;20026;-65
2021/05/12 12:37:08;;;;;;;1.40;1.30;;;13.60;77.10;;;;;;5045436;28;20033;-65
2021/05/12 12:39:42;;;;;;;1.48;1.20;;;13.60;76.10;;;;;;5040551;28;20091;-65
2021/05/12 12:42:08;;;;;;;2.25;1.30;;;13.60;76.10;;;;;;5040803;28;22236;-64
2021/05/12 12:44:45;;;;;;;1.65;1.40;;;13.60;76.10;;;;;;5036170;28;20395;-65
2021/05/12 12:47:16;;;;;;;1.65;1.20;;;13.60;75.90;;;;;;5039467;28;20513;-64
2021/05/12 12:49:47;;;;;;;1.63;1.30;;;13.70;76.00;;;;;;5037128;28;20037;-65
2021/05/12 12:52:23;;;;;;;2.85;1.35;;;13.60;75.90;;;;;;5044075;28;20474;-64
2021/05/12 12:54:58;;;;;;;1.95;1.70;;;13.70;75.40;;;;;;5036545;28;20025;-64
2021/05/12 12:57:38;;;;;;;1.45;1.30;;;13.60;75.40;;;;;;5042626;28;20045;-65
2021/05/12 13:00:09;;;;;;;1.70;1.40;;;13.60;75.10;;;;;;5043499;28;20033;-65
2021/05/12 13:02:53;;;;;;;2.67;1.08;;;13.60;75.10;;;;;;5039728;28;20041;-64
2021/05/12 13:05:23;;;;;;;1.75;1.15;;;13.60;75.30;;;;;;5042568;28;20042;-65
2021/05/12 13:07:52;;;;;;;1.88;1.20;;;13.60;75.00;;;;;;5042987;28;20038;-64
2021/05/12 13:10:32;;;;;;;3.42;1.52;;;13.60;75.70;;;;;;5042683;28;20141;-65
2021/05/12 13:13:03;;;;;;;1.77;1.42;;;13.60;75.80;;;;;;5042845;28;20029;-64